Time;durP1;ratioP1;P1;durP2;ratioP2;P2;SDS_P1;SDS_P2;PMS_P1;PMS_P2;Temp;Humidity;BMP_temperature;BMP_pressure;BME280_temperature;BME280_humidity;BME280_pressure;Samples;Min_cycle;Max_cycle;Signal;HPM_P1;HPM_P2
2021/12/10 00:08:01;;;;;;;72.40;33.40;;;;;;;-1.80;86.49;97294.15;421396;1310;111290;-40
2021/12/10 00:18:10;;;;;;;61.50;28.40;;;;;;;-1.68;86.97;97320.94;421773;1309;108299;-42
2021/12/10 00:28:19;;;;;;;;;;;;;;;-1.45;86.80;97324.84;421522;1309;97923;-41
2021/12/10 00:38:28;;;;;;;98.40;39.60;;;;;;;-1.38;87.27;97314.14;421850;1309;108904;-45
2021/12/10 00:48:35;;;;;;;105.80;41.90;;;;;;;-1.34;87.02;97301.05;421670;1309;108767;-41
2021/12/10 00:58:44;;;;;;;103.40;43.10;;;;;;;-1.45;86.53;97294.36;421883;1309;97190;-41
2021/12/10 01:08:55;;;;;;;108.20;43.70;;;;;;;-1.60;86.63;97286.10;421623;1309;111270;-42
2021/12/10 01:29:33;;;;;;;93.30;42.20;;;;;;;-1.56;86.66;97241.83;421433;1309;97852;-42
2021/12/10 01:39:43;;;;;;;113.70;50.20;;;;;;;-1.48;86.81;97241.25;421523;1309;111128;-41
2021/12/10 01:49:50;;;;;;;130.60;55.10;;;;;;;-1.45;86.87;97226.91;421564;1309;108963;-42
2021/12/10 01:59:59;;;;;;;102.50;43.90;;;;;;;-1.44;86.96;97211.44;421557;1309;96760;-42
2021/12/10 02:10:07;;;;;;;115.40;49.50;;;;;;;-1.57;86.90;97214.26;421742;1309;111082;-41
2021/12/10 02:20:17;;;;;;;93.00;40.20;;;;;;;-1.71;86.60;97209.35;421457;1309;109529;-42
2021/12/10 02:30:25;;;;;;;90.10;41.40;;;;;;;-1.72;86.86;97204.67;421539;1309;108842;-40
2021/12/10 02:40:33;;;;;;;68.40;30.80;;;;;;;-1.71;86.60;97211.30;422208;1299;97591;-41
2021/12/10 02:50:43;;;;;;;66.80;31.70;;;;;;;-1.67;86.67;97219.98;421453;1312;109772;-41
2021/12/10 03:00:47;;;;;;;;;;;;;;;-1.60;86.83;97224.61;421567;1309;97975;-41
2021/12/10 03:10:55;;;;;;;87.60;39.60;;;;;;;-1.64;86.95;97213.33;421531;1309;110192;-40
2021/12/10 03:21:04;;;;;;;80.70;37.80;;;;;;;-1.73;86.95;97207.31;421288;1309;107343;-41
2021/12/10 03:31:12;;;;;;;81.40;38.20;;;;;;;-1.81;87.07;97183.45;421264;1309;109006;-40
2021/12/10 03:41:20;;;;;;;96.00;38.80;;;;;;;-1.88;87.03;97178.58;421347;1309;97556;-40
2021/12/10 03:51:27;;;;;;;83.50;36.70;;;;;;;-1.84;86.89;97160.18;421393;1309;111087;-41
2021/12/10 04:01:42;;;;;;;80.00;37.70;;;;;;;-1.78;86.91;97164.45;421304;1308;109267;-40
2021/12/10 04:11:49;;;;;;;84.10;40.50;;;;;;;-1.73;86.88;97164.02;421570;1309;97558;-39
2021/12/10 04:21:58;;;;;;;76.00;34.00;;;;;;;-1.72;86.73;97185.15;421670;1309;108953;-40
2021/12/10 04:32:08;;;;;;;105.30;44.80;;;;;;;-1.80;87.08;97187.36;421714;1309;98589;-40
2021/12/10 04:42:15;;;;;;;102.90;46.20;;;;;;;-1.79;87.21;97179.92;421710;1309;98033;-40
2021/12/10 04:52:24;;;;;;;113.00;45.30;;;;;;;-1.85;87.11;97165.16;421756;1309;111838;-41
2021/12/10 05:02:33;;;;;;;101.20;46.40;;;;;;;-1.88;87.05;97170.28;421827;1309;108917;-41
2021/12/10 05:12:43;;;;;;;85.20;41.50;;;;;;;-1.85;87.08;97175.14;421764;1309;98585;-40
2021/12/10 05:22:52;;;;;;;90.60;39.70;;;;;;;-1.81;87.20;97167.62;421690;1309;111629;-40
2021/12/10 05:33:01;;;;;;;91.90;40.90;;;;;;;-1.76;87.17;97182.13;421614;1309;108689;-40
2021/12/10 05:43:08;;;;;;;96.30;42.70;;;;;;;-1.73;86.87;97175.10;421833;1309;97942;-39
2021/12/10 05:53:16;;;;;;;125.20;54.60;;;;;;;-1.81;87.08;97175.48;421826;1309;106850;-40
2021/12/10 06:03:27;;;;;;;138.50;60.10;;;;;;;-1.92;87.44;97166.45;421241;1310;96715;-41
2021/12/10 06:13:35;;;;;;;127.80;57.50;;;;;;;-1.99;87.31;97168.34;421814;1309;97121;-40
2021/12/10 06:23:43;;;;;;;121.30;55.10;;;;;;;-1.93;87.33;97165.85;421767;1309;108922;-40
2021/12/10 06:33:52;;;;;;;106.00;50.10;;;;;;;-1.74;87.41;97161.34;421993;1309;97980;-41
2021/12/10 06:44:04;;;;;;;117.40;55.40;;;;;;;-1.56;87.47;97156.14;421948;1309;110114;-41
2021/12/10 06:54:12;;;;;;;151.90;64.10;;;;;;;-1.48;87.41;97172.69;422049;1309;109120;-40
2021/12/10 07:04:19;;;;;;;148.10;59.60;;;;;;;-1.41;87.32;97179.57;422266;1309;97998;-41
2021/12/10 07:14:27;;;;;;;117.80;51.70;;;;;;;-1.37;87.20;97205.17;421899;1309;110993;-41
2021/12/10 07:24:34;;;;;;;115.60;46.50;;;;;;;-1.30;87.58;97212.98;421967;1309;109004;-41
2021/12/10 07:34:42;;;;;;;102.70;42.70;;;;;;;-1.14;87.32;97209.14;421996;1309;97556;-40
2021/12/10 07:44:50;;;;;;;98.10;41.40;;;;;;;-1.04;87.25;97205.54;422094;1309;107919;-41
2021/12/10 07:54:57;;;;;;;119.70;47.90;;;;;;;-0.90;87.51;97202.98;421969;1309;97546;-40
2021/12/10 08:05:07;;;;;;;77.60;39.80;;;;;;;-0.85;87.63;97200.38;422198;1309;97960;-41
2021/12/10 08:15:15;;;;;;;39.90;21.90;;;;;;;-0.74;87.41;97208.33;421982;1309;111193;-40
2021/12/10 08:25:24;;;;;;;34.80;19.90;;;;;;;-0.56;87.36;97214.64;422241;1309;109570;-40
2021/12/10 08:45:42;;;;;;;47.60;22.60;;;;;;;-0.39;87.05;97210.87;422302;1310;111272;-40
2021/12/10 08:55:53;;;;;;;27.90;16.00;;;;;;;-0.25;87.24;97199.15;422036;1309;109604;-40
2021/12/10 09:06:01;;;;;;;20.70;12.90;;;;;;;-0.01;87.03;97198.09;422301;1309;97939;-42
2021/12/10 09:16:22;;;;;;;32.80;17.40;;;;;;;0.21;86.96;97207.33;417918;1309;5748076;-40
2021/12/10 09:26:30;;;;;;;41.00;22.40;;;;;;;0.27;86.66;97208.98;422229;1309;108940;-41
2021/12/10 09:36:38;;;;;;;40.70;23.10;;;;;;;0.32;86.50;97208.48;421820;1309;97555;-40
2021/12/10 09:46:46;;;;;;;34.10;20.10;;;;;;;0.46;86.38;97204.29;422010;1309;108840;-40
2021/12/10 09:56:58;;;;;;;44.50;24.40;;;;;;;0.45;86.49;97196.84;421350;1312;98051;-41
2021/12/10 10:07:07;;;;;;;48.00;26.10;;;;;;;0.56;86.45;97188.13;422255;1309;98073;-41
2021/12/10 10:17:15;;;;;;;;;;;;;;;0.76;86.34;97180.50;421985;1309;111665;-40
2021/12/10 10:37:36;;;;;;;47.50;25.00;;;;;;;1.29;86.07;97158.08;422160;1309;97945;-40
2021/12/10 10:47:43;;;;;;;48.50;25.80;;;;;;;1.20;85.75;97159.29;421498;1312;111179;-39
2021/12/10 10:58:13;;;;;;;34.20;21.40;;;;;;;1.31;85.73;97166.17;422455;1310;108999;-40
2021/12/10 11:08:26;;;;;;;35.40;20.20;;;;;;;1.43;85.46;97155.84;422253;1309;97962;-40
2021/12/10 11:18:39;;;;;;;49.90;29.60;;;;;;;1.43;85.37;97151.55;420633;1312;111164;-41
2021/12/10 11:28:46;;;;;;;66.00;33.80;;;;;;;1.43;85.46;97167.97;422111;1310;109111;-40
2021/12/10 11:38:57;;;;;;;40.70;22.70;;;;;;;1.32;85.20;97178.35;421949;1309;108797;-40
2021/12/10 11:49:04;;;;;;;37.10;22.30;;;;;;;1.34;85.16;97184.63;422001;1309;97585;-41
2021/12/10 11:59:09;;;;;;;53.50;27.10;;;;;;;1.40;85.23;97180.05;422144;1310;109526;-40
2021/12/10 12:19:35;;;;;;;49.30;26.80;;;;;;;1.23;85.16;97189.08;422066;1309;97983;-41
2021/12/10 12:29:42;;;;;;;35.80;20.70;;;;;;;1.52;84.86;97174.58;422274;1310;108592;-40
2021/12/10 12:39:53;;;;;;;52.30;24.40;;;;;;;1.36;84.53;97178.02;422054;1310;97939;-40
2021/12/10 12:49:58;;;;;;;;;;;;;;;1.14;84.48;97173.64;421511;1315;97980;-39
2021/12/10 13:00:07;;;;;;;43.40;23.80;;;;;;;1.12;84.70;97171.40;421930;1313;111277;-40
2021/12/10 13:10:20;;;;;;;44.20;25.10;;;;;;;1.19;84.42;97163.14;422408;1313;107543;-39
2021/12/10 13:20:31;;;;;;;60.10;30.60;;;;;;;1.16;84.62;97156.30;422085;1310;97939;-41
2021/12/10 13:30:42;;;;;;;81.50;38.80;;;;;;;1.00;84.34;97152.82;422123;1310;111261;-40
2021/12/10 13:40:52;;;;;;;62.00;32.20;;;;;;;0.90;84.33;97155.69;422072;1316;109046;-40
2021/12/10 13:51:06;;;;;;;54.80;29.80;;;;;;;0.85;84.13;97163.95;422145;1316;97965;-40
2021/12/10 14:01:16;;;;;;;67.70;33.60;;;;;;;0.69;84.26;97167.06;422049;1316;111338;-41
2021/12/10 14:11:30;;;;;;;77.30;36.00;;;;;;;0.42;84.22;97176.21;422166;1315;109016;-40
2021/12/10 14:21:46;;;;;;;89.10;46.20;;;;;;;0.16;84.40;97172.64;421779;1316;97990;-41
2021/12/10 14:32:21;;;;;;;99.80;50.70;;;;;;;-0.14;84.49;97174.72;422227;1316;110992;-41
2021/12/10 14:42:29;;;;;;;80.10;44.00;;;;;;;-0.36;84.43;97177.15;421890;1309;108879;-40
2021/12/10 14:52:39;;;;;;;75.20;39.20;;;;;;;-0.52;84.44;97175.86;421835;1313;97577;-41
2021/12/10 15:03:07;;;;;;;77.20;42.40;;;;;;;-0.62;84.45;97181.42;421932;1313;111214;-41
2021/12/10 15:24:12;;;;;;;140.60;67.40;;;;;;;-0.99;84.61;97191.98;421898;1313;97998;-39
2021/12/10 15:34:20;;;;;;;166.30;75.00;;;;;;;-1.22;84.46;97196.02;420589;1315;111095;-39
2021/12/10 15:44:27;;;;;;;157.90;71.20;;;;;;;-1.39;84.82;97194.75;421725;1309;108933;-40
2021/12/10 15:54:38;;;;;;;144.50;72.10;;;;;;;-1.45;84.61;97196.12;421886;1310;97987;-40
2021/12/10 16:04:49;;;;;;;118.60;61.60;;;;;;;-1.43;85.00;97205.39;421860;1310;111095;-40
2021/12/10 16:14:57;;;;;;;116.20;66.20;;;;;;;-1.41;84.69;97210.16;421702;1310;108767;-40
2021/12/10 16:25:10;;;;;;;116.20;64.40;;;;;;;-1.44;84.68;97211.38;422112;1310;97401;-39
2021/12/10 16:35:23;;;;;;;210.20;90.60;;;;;;;-1.53;85.08;97204.89;421932;1310;108846;-39
2021/12/10 16:45:33;;;;;;;213.70;91.90;;;;;;;-1.62;85.07;97211.88;422322;1309;97968;-39
2021/12/10 16:55:40;;;;;;;203.30;89.80;;;;;;;-1.74;85.09;97210.97;421872;1310;96726;-40
2021/12/10 17:05:50;;;;;;;174.20;77.20;;;;;;;-1.98;85.20;97211.63;422071;1313;111132;-40
2021/12/10 17:16:13;;;;;;;175.40;79.40;;;;;;;-2.10;85.36;97213.58;417642;1309;5785347;-40
2021/12/10 17:26:26;;;;;;;158.40;81.20;;;;;;;-2.31;84.89;97225.28;421963;1310;97971;-40
2021/12/10 17:36:37;;;;;;;129.40;71.40;;;;;;;-2.35;85.02;97223.27;421855;1309;110186;-40
2021/12/10 17:56:59;;;;;;;184.10;84.80;;;;;;;-2.21;85.31;97218.20;421712;1309;96683;-40
2021/12/10 18:07:11;;;;;;;160.70;71.60;;;;;;;-2.19;85.39;97227.23;422111;1313;111034;-40
2021/12/10 18:17:18;;;;;;;189.40;80.20;;;;;;;-2.27;85.34;97225.96;421851;1309;108936;-40
2021/12/10 18:27:28;;;;;;;174.40;78.40;;;;;;;-2.48;85.19;97243.08;421945;1309;97958;-39
2021/12/10 18:37:37;;;;;;;123.70;65.60;;;;;;;-2.81;84.58;97252.26;421769;1309;110832;-39
2021/12/10 18:47:47;;;;;;;118.50;61.00;;;;;;;-3.07;84.47;97266.14;421960;1309;108844;-40
2021/12/10 18:57:56;;;;;;;171.90;75.10;;;;;;;-3.18;84.63;97269.05;421969;1309;97936;-41
2021/12/10 19:08:09;;;;;;;173.50;78.50;;;;;;;-3.54;84.36;97281.60;421905;1309;108885;-40
2021/12/10 19:18:17;;;;;;;199.10;84.70;;;;;;;-3.94;84.28;97297.02;421966;1310;107774;-40
2021/12/10 19:28:29;;;;;;;216.90;86.50;;;;;;;-4.30;84.36;97312.35;421977;1309;97978;-39
2021/12/10 19:38:40;;;;;;;209.10;86.20;;;;;;;-4.51;84.56;97314.34;422067;1309;111790;-40
2021/12/10 19:48:49;;;;;;;232.80;98.70;;;;;;;-4.65;84.74;97324.00;421629;1309;108935;-39
2021/12/10 19:59:08;;;;;;;221.50;106.40;;;;;;;-4.81;84.25;97334.79;422067;1309;97559;-40
2021/12/10 20:09:21;;;;;;;208.50;102.00;;;;;;;-4.82;84.15;97331.83;421891;1309;111140;-40
2021/12/10 20:19:32;;;;;;;224.40;95.40;;;;;;;-4.76;84.53;97338.52;421890;1310;108990;-40
2021/12/10 20:29:43;;;;;;;282.00;115.60;;;;;;;-4.58;84.91;97345.66;421816;1309;97938;-39
2021/12/10 20:39:54;;;;;;;327.10;122.90;;;;;;;-4.61;84.60;97353.22;421821;1309;111207;-40
2021/12/10 20:50:07;;;;;;;364.00;139.60;;;;;;;-4.74;84.68;97348.45;421696;1309;109054;-42
2021/12/10 21:00:19;;;;;;;335.50;125.90;;;;;;;-4.85;84.67;97351.57;421970;1309;97936;-40
2021/12/10 21:10:31;;;;;;;359.60;139.30;;;;;;;-4.87;84.88;97370.71;422017;1309;97976;-40
2021/12/10 21:20:42;;;;;;;240.90;101.30;;;;;;;-4.66;85.18;97383.02;421723;1309;110738;-40
2021/12/10 21:30:54;;;;;;;115.20;57.90;;;;;;;-4.30;85.46;97385.13;421794;1309;108832;-39
2021/12/10 21:41:06;;;;;;;104.20;45.60;;;;;;;-4.00;85.81;97393.95;421761;1309;97981;-39
2021/12/10 21:51:17;;;;;;;72.20;36.30;;;;;;;-3.77;85.92;97408.20;422143;1309;109135;-39
2021/12/10 22:01:31;;;;;;;78.50;34.80;;;;;;;-3.49;86.08;97415.97;421553;1309;97564;-39
2021/12/10 22:11:54;;;;;;;59.60;29.10;;;;;;;-3.25;85.96;97422.17;421970;1309;111453;-39
2021/12/10 22:22:01;;;;;;;;;;;;;;;-3.05;86.22;97429.16;421636;1309;108915;-39
2021/12/10 22:32:12;;;;;;;82.40;39.50;;;;;;;-2.97;86.09;97441.19;421840;1309;97971;-43
2021/12/10 22:42:21;;;;;;;124.70;46.30;;;;;;;-2.92;86.14;97440.55;421880;1310;107870;-39
2021/12/10 22:52:30;;;;;;;122.30;47.90;;;;;;;-3.02;86.45;97437.73;421889;1310;98087;-39
2021/12/10 23:02:38;;;;;;;157.70;51.30;;;;;;;-3.05;86.31;97437.43;421600;1309;98096;-41
2021/12/10 23:12:53;;;;;;;106.20;41.20;;;;;;;-3.08;86.38;97431.05;421975;1309;111162;-40
2021/12/10 23:22:57;;;;;;;120.80;47.40;;;;;;;-3.04;86.13;97427.13;421830;1309;108825;-40
2021/12/10 23:33:10;;;;;;;94.80;42.70;;;;;;;-2.84;86.55;97432.06;421884;1310;97545;-40
2021/12/10 23:43:22;;;;;;;112.60;45.50;;;;;;;-2.76;86.23;97442.54;421696;1309;109167;-41
2021/12/10 23:53:36;;;;;;;144.20;52.20;;;;;;;-2.97;86.30;97465.66;421834;1309;98598;-41
